Time;durP1;ratioP1;P1;durP2;ratioP2;P2;SDS_P1;SDS_P2;PMS_P1;PMS_P2;Temp;Humidity;BMP_temperature;BMP_pressure;BME280_temperature;BME280_humidity;BME280_pressure;Samples;Min_cycle;Max_cycle;Signal;HPM_P1;HPM_P2
2020/12/08 00:00:14;;;;;;;0.65;0.20;;;21.10;36.70;;;;;;5083635;28;20397;-82
2020/12/08 00:02:41;;;;;;;2.80;0.20;;;21.50;38.30;;;;;;5069414;28;20405;-83
2020/12/08 00:05:08;;;;;;;2.15;0.22;;;21.40;36.10;;;;;;5086683;28;20395;-82
2020/12/08 00:07:36;;;;;;;1.10;0.20;;;21.50;37.60;;;;;;5086141;28;20400;-82
2020/12/08 00:10:04;;;;;;;0.47;0.20;;;21.50;33.00;;;;;;5082062;28;22231;-84
2020/12/08 00:12:31;;;;;;;0.65;0.30;;;21.90;37.30;;;;;;5088319;28;20388;-84
2020/12/08 00:14:58;;;;;;;0.65;0.20;;;22.70;31.80;;;;;;5075143;28;20394;-84
2020/12/08 00:17:25;;;;;;;3.10;0.30;;;22.70;33.00;;;;;;5086627;28;20364;-84
2020/12/08 00:19:52;;;;;;;0.50;0.30;;;23.30;33.10;;;;;;5083458;28;20388;-83
2020/12/08 00:22:19;;;;;;;2.40;0.50;;;23.40;31.60;;;;;;5081034;28;20396;-84
2020/12/08 00:24:46;;;;;;;0.80;0.25;;;24.10;36.90;;;;;;5087227;28;20407;-84
2020/12/08 00:27:13;;;;;;;0.60;0.20;;;24.60;33.00;;;;;;5077090;28;20380;-85
2020/12/08 00:29:41;;;;;;;0.60;0.20;;;25.20;32.40;;;;;;5068671;28;20883;-83
2020/12/08 00:32:11;;;;;;;1.10;0.20;;;25.70;29.90;;;;;;5081769;28;20397;-83
2020/12/08 00:34:39;;;;;;;0.70;0.30;;;25.70;28.70;;;;;;5085348;28;20382;-84
2020/12/08 00:37:06;;;;;;;0.60;0.20;;;25.00;29.10;;;;;;5081888;28;20400;-83
2020/12/08 00:39:34;;;;;;;1.55;0.30;;;24.70;30.10;;;;;;5087030;28;20392;-85
2020/12/08 00:42:02;;;;;;;1.23;0.30;;;24.30;30.10;;;;;;5084879;28;20467;-86
2020/12/08 00:44:29;;;;;;;0.50;0.28;;;23.40;30.30;;;;;;5074024;28;21247;-84
2020/12/08 00:46:56;;;;;;;0.65;0.30;;;22.90;32.70;;;;;;5091837;28;20380;-86
2020/12/08 00:49:23;;;;;;;0.70;0.15;;;23.10;31.30;;;;;;5087319;28;20879;-85
2020/12/08 00:51:58;;;;;;;0.45;0.20;;;23.30;34.70;;;;;;5087243;28;20893;-85
2020/12/08 00:54:26;;;;;;;0.70;0.10;;;23.80;31.80;;;;;;5085231;28;20391;-85
2020/12/08 00:56:53;;;;;;;1.40;0.10;;;24.00;33.10;;;;;;5092302;28;20477;-86
2020/12/08 00:59:20;;;;;;;0.63;0.10;;;24.00;31.70;;;;;;5091257;28;20815;-84
2020/12/08 01:01:47;;;;;;;1.80;0.53;;;24.20;33.10;;;;;;5086602;28;20728;-86
2020/12/08 01:04:14;;;;;;;1.40;0.30;;;24.60;33.00;;;;;;5089215;28;20396;-85
2020/12/08 01:06:41;;;;;;;1.40;0.20;;;24.60;36.30;;;;;;5089505;28;21005;-86
2020/12/08 01:09:09;;;;;;;1.40;0.30;;;24.60;33.80;;;;;;5087487;28;20937;-85
2020/12/08 01:11:43;;;;;;;0.90;0.20;;;24.80;34.40;;;;;;5091854;28;20404;-85
2020/12/08 01:14:14;;;;;;;1.80;0.17;;;24.90;36.50;;;;;;5079760;28;20432;-85
2020/12/08 01:16:41;;;;;;;0.22;0.10;;;24.90;29.60;;;;;;5091361;28;20919;-87
2020/12/08 01:19:08;;;;;;;0.82;0.20;;;24.20;29.80;;;;;;5084360;28;20785;-85
2020/12/08 01:21:35;;;;;;;0.65;0.20;;;24.10;37.20;;;;;;5077881;28;20716;-86
2020/12/08 01:24:04;;;;;;;0.43;0.20;;;23.90;31.90;;;;;;5090280;28;20866;-86
2020/12/08 01:26:31;;;;;;;0.60;0.20;;;23.80;35.70;;;;;;5069896;28;20384;-85
2020/12/08 01:28:58;;;;;;;2.00;0.20;;;23.90;36.30;;;;;;5086707;28;20809;-86
2020/12/08 01:31:33;;;;;;;1.47;0.30;;;23.90;32.00;;;;;;5087407;28;20475;-85
2020/12/08 01:34:00;;;;;;;1.13;0.20;;;23.10;31.40;;;;;;5085893;28;20384;-85
2020/12/08 01:36:27;;;;;;;3.83;0.20;;;22.70;33.90;;;;;;5075029;28;20873;-85
2020/12/08 01:38:54;;;;;;;0.30;0.28;;;22.60;32.20;;;;;;5071823;28;20431;-86
2020/12/08 01:41:21;;;;;;;0.60;0.20;;;22.60;30.30;;;;;;5071585;28;20741;-86
2020/12/08 01:43:54;;;;;;;0.30;0.25;;;22.90;35.40;;;;;;5071805;28;20936;-84
2020/12/08 01:46:27;;;;;;;0.32;0.10;;;23.00;36.70;;;;;;5089553;28;20425;-86
2020/12/08 01:48:55;;;;;;;2.05;0.30;;;23.20;33.00;;;;;;5090275;28;20790;-84
2020/12/08 01:51:23;;;;;;;0.95;0.20;;;23.50;38.00;;;;;;5092040;28;20937;-84
2020/12/08 01:53:53;;;;;;;1.10;0.20;;;23.80;29.80;;;;;;5090932;28;20419;-84
2020/12/08 01:56:21;;;;;;;0.67;0.27;;;23.60;32.70;;;;;;5082685;28;20427;-82
2020/12/08 01:58:48;;;;;;;0.30;0.20;;;23.30;31.00;;;;;;5083885;28;20478;-85
2020/12/08 02:01:16;;;;;;;1.30;0.20;;;23.00;37.10;;;;;;5092070;28;20384;-86
2020/12/08 02:03:49;;;;;;;1.85;0.25;;;23.30;37.30;;;;;;5092045;28;20372;-86
2020/12/08 02:06:16;;;;;;;0.60;0.30;;;23.50;31.30;;;;;;5088186;28;20960;-85
2020/12/08 02:08:43;;;;;;;0.45;0.17;;;23.50;32.10;;;;;;5089919;28;20460;-85
2020/12/08 02:11:10;;;;;;;1.05;0.13;;;23.10;29.90;;;;;;5091466;28;20376;-85
2020/12/08 02:13:37;;;;;;;2.60;0.20;;;22.50;32.30;;;;;;5091275;28;20415;-85
2020/12/08 02:16:04;;;;;;;0.80;0.20;;;22.20;33.50;;;;;;5077013;28;20399;-86
2020/12/08 02:18:31;;;;;;;3.25;0.35;;;22.30;36.30;;;;;;5075118;28;20384;-85
2020/12/08 02:21:03;;;;;;;0.93;0.30;;;22.20;33.40;;;;;;5055768;28;20844;-84
2020/12/08 02:23:30;;;;;;;0.50;0.10;;;21.90;33.70;;;;;;5091184;28;20797;-85
2020/12/08 02:26:02;;;;;;;0.52;0.20;;;21.80;35.60;;;;;;5090206;28;20743;-85
2020/12/08 02:28:31;;;;;;;1.70;0.20;;;21.70;38.80;;;;;;5070972;28;20408;-85
2020/12/08 02:30:58;;;;;;;1.00;0.20;;;21.80;35.30;;;;;;5089881;28;20842;-85
2020/12/08 02:33:27;;;;;;;0.30;0.20;;;21.90;33.50;;;;;;5086596;28;20461;-84
2020/12/08 02:35:58;;;;;;;2.63;0.20;;;21.90;31.70;;;;;;5081931;28;20473;-84
2020/12/08 02:38:26;;;;;;;0.32;0.20;;;21.90;35.80;;;;;;5090954;28;20901;-85
2020/12/08 02:40:53;;;;;;;3.95;0.28;;;22.10;36.60;;;;;;5084397;28;20396;-86
2020/12/08 02:43:21;;;;;;;0.83;0.30;;;21.50;36.50;;;;;;5084263;28;20384;-85
2020/12/08 02:45:49;;;;;;;2.83;0.45;;;21.10;38.10;;;;;;5086741;28;20471;-85
2020/12/08 02:48:16;;;;;;;2.17;0.30;;;20.80;39.20;;;;;;5088772;28;20400;-85
2020/12/08 02:50:43;;;;;;;2.03;0.30;;;21.00;41.20;;;;;;5087180;28;20392;-84
2020/12/08 02:53:10;;;;;;;2.50;0.50;;;21.40;40.00;;;;;;5077517;28;20400;-83
2020/12/08 02:55:37;;;;;;;1.20;0.57;;;21.60;42.80;;;;;;5088012;28;20388;-85
2020/12/08 02:58:04;;;;;;;3.72;0.47;;;21.70;39.70;;;;;;5088361;28;20430;-84
2020/12/08 03:00:41;;;;;;;3.35;0.40;;;21.10;40.70;;;;;;5085835;28;20388;-86
2020/12/08 03:03:08;;;;;;;1.02;0.40;;;20.80;41.90;;;;;;5083200;28;20403;-84
2020/12/08 03:05:35;;;;;;;1.10;0.20;;;20.70;42.60;;;;;;5089986;28;20364;-84
2020/12/08 03:08:02;;;;;;;3.20;0.47;;;20.50;42.50;;;;;;5079875;28;20505;-84
2020/12/08 03:10:29;;;;;;;2.63;0.50;;;20.30;45.00;;;;;;5086286;28;20895;-85
2020/12/08 03:12:56;;;;;;;0.60;0.30;;;20.40;47.80;;;;;;5090927;28;20400;-86
2020/12/08 03:15:23;;;;;;;0.80;0.30;;;20.70;46.50;;;;;;5074413;28;20489;-87
2020/12/08 03:17:50;;;;;;;3.30;0.30;;;20.80;46.10;;;;;;5089481;28;20779;-86
2020/12/08 03:20:17;;;;;;;2.78;0.30;;;20.70;46.70;;;;;;5070539;28;20400;-85
2020/12/08 03:22:44;;;;;;;1.83;0.43;;;20.60;46.10;;;;;;5084839;28;20469;-86
2020/12/08 03:25:11;;;;;;;1.80;0.50;;;20.50;49.00;;;;;;5090532;28;20372;-86
2020/12/08 03:27:38;;;;;;;1.98;0.30;;;20.60;49.70;;;;;;5089542;28;20454;-84
2020/12/08 03:30:06;;;;;;;1.57;0.37;;;20.70;47.00;;;;;;5090376;28;20487;-86
2020/12/08 03:32:33;;;;;;;3.83;0.63;;;20.80;47.50;;;;;;5087530;28;20408;-86
2020/12/08 03:35:00;;;;;;;3.07;0.43;;;20.90;47.80;;;;;;5084996;28;20483;-86
2020/12/08 03:37:27;;;;;;;1.92;0.40;;;21.10;48.60;;;;;;5086532;28;20890;-86
2020/12/08 03:39:54;;;;;;;1.55;0.40;;;21.00;45.60;;;;;;5079061;28;20376;-86
2020/12/08 03:42:21;;;;;;;2.50;0.40;;;21.00;46.30;;;;;;5083640;28;20521;-86
2020/12/08 03:44:48;;;;;;;2.05;0.50;;;21.10;45.90;;;;;;5088124;28;20396;-86
2020/12/08 03:47:15;;;;;;;5.10;0.70;;;21.10;45.70;;;;;;5085674;28;20908;-87
2020/12/08 03:49:42;;;;;;;2.17;0.50;;;21.10;46.20;;;;;;5084193;28;20397;-84
2020/12/08 03:52:09;;;;;;;3.63;0.60;;;20.80;45.90;;;;;;5083200;28;20424;-83
2020/12/08 03:54:36;;;;;;;2.75;0.50;;;20.90;47.60;;;;;;5081494;28;20408;-87
2020/12/08 03:57:03;;;;;;;2.53;0.57;;;21.00;46.90;;;;;;5087785;28;20388;-83
2020/12/08 03:59:30;;;;;;;2.25;0.50;;;21.10;45.90;;;;;;5081092;28;20394;-82
2020/12/08 04:01:57;;;;;;;5.15;0.63;;;21.00;47.50;;;;;;5070279;28;20362;-84
2020/12/08 04:04:25;;;;;;;3.58;0.50;;;21.10;47.70;;;;;;5087116;28;20748;-84
2020/12/08 04:06:52;;;;;;;3.35;0.50;;;21.20;49.80;;;;;;5088631;28;20383;-85
2020/12/08 04:09:20;;;;;;;3.10;0.50;;;21.30;49.00;;;;;;5089323;28;20471;-84
2020/12/08 04:11:47;;;;;;;3.55;0.40;;;21.20;48.80;;;;;;5085750;28;20404;-83
2020/12/08 04:14:14;;;;;;;1.45;0.40;;;20.70;48.40;;;;;;5087200;28;20428;-85
2020/12/08 04:16:40;;;;;;;3.80;0.50;;;20.80;48.70;;;;;;5086833;28;20397;-84
2020/12/08 04:19:07;;;;;;;2.53;0.80;;;20.90;50.00;;;;;;5087266;28;20471;-84
2020/12/08 04:21:34;;;;;;;3.45;0.47;;;20.90;48.90;;;;;;5087721;28;20415;-84
2020/12/08 04:24:02;;;;;;;2.28;0.50;;;20.90;48.40;;;;;;5078054;28;20489;-82
2020/12/08 04:26:30;;;;;;;1.73;0.50;;;20.80;49.90;;;;;;5069301;28;20374;-83
2020/12/08 04:28:58;;;;;;;4.32;0.80;;;20.70;49.40;;;;;;5085891;28;20852;-84
2020/12/08 04:31:25;;;;;;;1.27;0.50;;;20.60;49.90;;;;;;5073809;28;20891;-84
2020/12/08 04:33:55;;;;;;;4.05;0.75;;;20.50;50.40;;;;;;5068812;28;20421;-83
2020/12/08 04:36:24;;;;;;;2.40;0.70;;;20.60;51.80;;;;;;5054535;28;20749;-83
2020/12/08 04:38:51;;;;;;;4.93;0.70;;;20.50;50.70;;;;;;5068537;28;20394;-83
2020/12/08 04:41:23;;;;;;;3.42;0.73;;;20.30;51.20;;;;;;5072313;28;20574;-84
2020/12/08 04:43:51;;;;;;;3.90;0.70;;;20.40;49.80;;;;;;5088893;28;20436;-83
2020/12/08 04:46:20;;;;;;;1.92;0.68;;;20.50;49.70;;;;;;5088857;28;20771;-85
2020/12/08 04:48:51;;;;;;;2.65;0.70;;;20.50;49.00;;;;;;5085991;28;20954;-84
2020/12/08 04:51:19;;;;;;;4.95;0.90;;;20.40;49.50;;;;;;5070837;28;20467;-84
2020/12/08 04:53:52;;;;;;;4.75;0.68;;;20.30;49.60;;;;;;5088811;28;20403;-83
2020/12/08 04:56:20;;;;;;;3.87;0.60;;;20.20;50.60;;;;;;5089109;28;20364;-83
2020/12/08 04:58:47;;;;;;;1.73;0.70;;;20.30;50.20;;;;;;5088681;28;20738;-82
2020/12/08 05:01:28;;;;;;;2.28;0.70;;;20.40;51.30;;;;;;5077453;28;20385;-83
2020/12/08 05:04:03;;;;;;;3.05;0.70;;;20.40;48.40;;;;;;5071421;28;20389;-84
2020/12/08 05:06:30;;;;;;;3.30;0.65;;;20.30;50.30;;;;;;5090418;28;20429;-84
2020/12/08 05:09:03;;;;;;;2.10;0.67;;;20.20;49.90;;;;;;5069515;28;20403;-84
2020/12/08 05:11:31;;;;;;;2.83;0.60;;;20.20;51.30;;;;;;5089249;28;20402;-83
2020/12/08 05:14:03;;;;;;;2.25;0.80;;;20.30;49.80;;;;;;5089117;28;20485;-85
2020/12/08 05:16:31;;;;;;;3.85;0.80;;;20.40;49.20;;;;;;5087970;28;20385;-84
2020/12/08 05:19:11;;;;;;;2.90;0.75;;;20.40;50.80;;;;;;5089101;28;20734;-85
2020/12/08 05:21:51;;;;;;;4.35;0.70;;;20.30;50.50;;;;;;5076206;28;20390;-84
2020/12/08 05:24:33;;;;;;;3.25;0.75;;;20.20;49.90;;;;;;5069097;28;20417;-84
2020/12/08 05:27:03;;;;;;;4.07;1.02;;;20.00;52.50;;;;;;5072441;28;20396;-83
2020/12/08 05:29:34;;;;;;;5.15;0.80;;;19.90;51.60;;;;;;5066308;28;21217;-87
2020/12/08 05:32:24;;;;;;;4.68;0.90;;;19.80;52.00;;;;;;5091615;28;20514;-87
2020/12/08 05:34:55;;;;;;;4.10;1.00;;;19.80;52.10;;;;;;5072853;28;20404;-84
2020/12/08 05:37:23;;;;;;;3.17;0.70;;;19.90;53.50;;;;;;5091148;28;20394;-86
2020/12/08 05:39:50;;;;;;;5.43;0.85;;;19.90;50.90;;;;;;5089108;28;20419;-85
2020/12/08 05:42:20;;;;;;;2.53;0.70;;;19.90;51.10;;;;;;5091484;28;20377;-85
2020/12/08 05:44:49;;;;;;;2.72;0.90;;;19.80;52.10;;;;;;5073543;28;20395;-86
2020/12/08 05:47:20;;;;;;;4.75;1.00;;;19.80;52.10;;;;;;5091753;28;20372;-84
2020/12/08 05:50:01;;;;;;;5.23;0.93;;;19.70;52.80;;;;;;5089280;28;20867;-85
2020/12/08 05:52:34;;;;;;;3.08;0.88;;;19.70;51.90;;;;;;5073747;28;20398;-86
2020/12/08 05:55:15;;;;;;;4.97;1.00;;;19.60;52.60;;;;;;5090028;28;20397;-86
2020/12/08 05:57:44;;;;;;;6.38;1.00;;;19.50;54.20;;;;;;5085632;28;20522;-82
2020/12/08 06:00:29;;;;;;;2.50;0.75;;;19.40;54.00;;;;;;5079913;28;20424;-86
2020/12/08 06:03:07;;;;;;;6.72;1.00;;;19.20;54.00;;;;;;5079861;28;20756;-84
2020/12/08 06:05:35;;;;;;;5.57;1.08;;;19.20;56.00;;;;;;5087889;28;20399;-84
2020/12/08 06:08:20;;;;;;;2.50;0.85;;;19.20;54.50;;;;;;5089437;28;20428;-84
2020/12/08 06:10:57;;;;;;;5.87;1.20;;;19.10;55.60;;;;;;5089902;28;20496;-84
2020/12/08 06:13:26;;;;;;;5.87;1.20;;;19.10;54.50;;;;;;5085167;28;20410;-85
2020/12/08 06:15:53;;;;;;;4.57;1.20;;;19.20;54.80;;;;;;5071170;28;20373;-84
2020/12/08 06:18:36;;;;;;;5.15;0.95;;;19.20;55.00;;;;;;5087504;28;20414;-86
2020/12/08 06:21:05;;;;;;;4.53;1.27;;;19.10;55.20;;;;;;5087180;28;20391;-85
2020/12/08 06:23:32;;;;;;;4.90;1.02;;;19.00;55.20;;;;;;5087434;28;20428;-84
2020/12/08 06:26:03;;;;;;;5.75;1.33;;;18.70;56.60;;;;;;5088488;28;20835;-85
2020/12/08 06:28:30;;;;;;;5.68;1.27;;;18.80;56.80;;;;;;5086819;28;20487;-84
2020/12/08 06:31:06;;;;;;;6.05;1.20;;;18.70;56.80;;;;;;5101969;28;20393;-86
2020/12/08 06:33:55;;;;;;;7.95;1.25;;;18.70;55.90;;;;;;5081932;28;20762;-86
2020/12/08 06:36:23;;;;;;;3.87;0.97;;;18.60;56.10;;;;;;5086988;28;20426;-84
2020/12/08 06:39:04;;;;;;;5.03;1.02;;;18.50;56.40;;;;;;5080967;28;20399;-85
2020/12/08 06:41:39;;;;;;;4.78;1.23;;;18.50;57.10;;;;;;5088950;28;20384;-84
2020/12/08 06:44:12;;;;;;;5.28;1.63;;;18.40;57.30;;;;;;5088528;28;20392;-85
2020/12/08 06:46:39;;;;;;;6.00;1.20;;;18.30;58.10;;;;;;5086761;28;20402;-85
2020/12/08 06:49:08;;;;;;;7.88;2.58;;;18.30;58.20;;;;;;5090420;28;20380;-85
2020/12/08 06:51:36;;;;;;;4.85;1.20;;;18.30;58.10;;;;;;5090152;28;20369;-85
2020/12/08 06:54:23;;;;;;;13.15;4.30;;;18.30;57.20;;;;;;5091992;28;20471;-85
2020/12/08 06:56:51;;;;;;;6.23;1.77;;;18.20;56.90;;;;;;5099622;28;20472;-85
2020/12/08 06:59:23;;;;;;;20.88;4.70;;;18.10;58.00;;;;;;5090194;28;20384;-86
2020/12/08 07:01:51;;;;;;;15.13;5.30;;;18.00;58.10;;;;;;5088956;28;20735;-87
2020/12/08 07:04:19;;;;;;;15.55;5.78;;;18.00;58.50;;;;;;5089979;28;20387;-87
2020/12/08 07:06:46;;;;;;;8.48;3.03;;;18.10;59.00;;;;;;5070405;28;20381;-85
2020/12/08 07:09:14;;;;;;;13.50;3.13;;;18.00;59.00;;;;;;5069661;28;20398;-83
2020/12/08 07:11:41;;;;;;;8.67;2.63;;;18.00;58.70;;;;;;5069591;28;20366;-83
2020/12/08 07:14:09;;;;;;;11.55;3.63;;;18.00;59.10;;;;;;5070106;28;20903;-86
2020/12/08 07:16:36;;;;;;;12.68;3.55;;;17.80;59.20;;;;;;5077500;28;20454;-85
2020/12/08 07:19:06;;;;;;;6.57;1.73;;;17.80;59.30;;;;;;5088240;28;20392;-85
2020/12/08 07:21:34;;;;;;;11.93;2.83;;;17.70;59.10;;;;;;5090033;28;20380;-87
2020/12/08 07:24:01;;;;;;;4.75;1.63;;;17.70;59.50;;;;;;5088815;28;20392;-85
2020/12/08 07:26:30;;;;;;;5.10;1.15;;;17.70;59.50;;;;;;5077985;28;20940;-86
2020/12/08 07:28:58;;;;;;;5.40;1.10;;;17.60;59.90;;;;;;5088585;28;20396;-84
2020/12/08 07:31:29;;;;;;;3.75;1.00;;;17.60;59.60;;;;;;5074999;28;20395;-84
2020/12/08 07:33:56;;;;;;;3.90;0.75;;;17.60;59.90;;;;;;5086075;28;20453;-84
2020/12/08 07:36:33;;;;;;;5.95;1.17;;;17.50;59.90;;;;;;5086235;28;20397;-86
2020/12/08 07:39:04;;;;;;;4.00;0.90;;;17.50;60.80;;;;;;5079432;28;20725;-85
2020/12/08 07:41:32;;;;;;;6.13;1.13;;;17.50;61.20;;;;;;5088119;28;20392;-84
2020/12/08 07:44:10;;;;;;;6.78;1.55;;;17.40;61.40;;;;;;5089249;28;20373;-86
2020/12/08 07:46:37;;;;;;;7.30;1.58;;;17.40;62.00;;;;;;5078977;28;20470;-84
2020/12/08 07:49:10;;;;;;;8.48;1.33;;;17.40;61.30;;;;;;5083069;28;20858;-85
2020/12/08 07:51:38;;;;;;;8.43;1.58;;;17.40;60.90;;;;;;5086594;28;20419;-84
2020/12/08 07:54:06;;;;;;;5.63;1.30;;;17.30;60.80;;;;;;5090814;28;20728;-85
2020/12/08 07:56:36;;;;;;;7.33;1.20;;;17.20;61.20;;;;;;5072297;28;20840;-85
2020/12/08 07:59:04;;;;;;;5.40;1.25;;;17.20;61.80;;;;;;5087556;28;20444;-82
2020/12/08 08:01:42;;;;;;;5.43;1.33;;;17.20;61.70;;;;;;5085850;28;20416;-83
2020/12/08 08:04:10;;;;;;;8.05;1.10;;;17.20;61.80;;;;;;5080828;28;20398;-83
2020/12/08 08:06:37;;;;;;;3.05;1.10;;;17.10;61.90;;;;;;5086940;28;20962;-83
2020/12/08 08:09:06;;;;;;;5.13;1.00;;;17.20;62.30;;;;;;5086856;28;20929;-82
2020/12/08 08:11:35;;;;;;;4.47;1.17;;;17.20;62.10;;;;;;5088321;28;20407;-83
2020/12/08 08:14:02;;;;;;;8.40;1.45;;;17.20;61.20;;;;;;5083778;28;20405;-83
2020/12/08 08:16:30;;;;;;;9.05;1.30;;;17.20;61.90;;;;;;5068054;28;20877;-82
2020/12/08 08:18:58;;;;;;;6.83;1.60;;;17.10;61.70;;;;;;5056354;28;20814;-83
2020/12/08 08:21:25;;;;;;;4.10;1.27;;;17.10;61.90;;;;;;5087495;28;20388;-82
2020/12/08 08:23:52;;;;;;;5.38;1.10;;;17.10;62.20;;;;;;5082235;28;20911;-83
2020/12/08 08:26:19;;;;;;;5.55;1.35;;;17.10;62.00;;;;;;5068216;28;20969;-83
2020/12/08 08:28:48;;;;;;;3.97;1.10;;;17.00;62.10;;;;;;5087962;28;20368;-83
2020/12/08 08:31:15;;;;;;;8.00;1.40;;;17.00;61.90;;;;;;5069373;28;20381;-83
2020/12/08 08:33:43;;;;;;;4.80;1.10;;;16.90;62.00;;;;;;5085333;28;20511;-83
2020/12/08 08:36:10;;;;;;;6.25;1.20;;;16.90;62.70;;;;;;5077537;28;20403;-83
2020/12/08 08:38:37;;;;;;;8.50;1.23;;;16.90;62.70;;;;;;5084137;28;20881;-82
2020/12/08 08:41:05;;;;;;;5.32;1.30;;;16.90;63.30;;;;;;5081078;28;20378;-83
2020/12/08 08:43:32;;;;;;;10.60;1.48;;;16.80;63.20;;;;;;5069495;28;20380;-82
2020/12/08 08:46:00;;;;;;;8.27;1.50;;;16.70;63.30;;;;;;5077192;28;20374;-82
2020/12/08 08:48:27;;;;;;;6.63;1.33;;;16.70;63.50;;;;;;5081878;28;20386;-82
2020/12/08 08:50:54;;;;;;;8.30;1.42;;;16.60;63.80;;;;;;5075619;28;20379;-84
2020/12/08 08:53:21;;;;;;;11.30;1.65;;;16.60;64.60;;;;;;5088569;28;20427;-83
2020/12/08 08:55:48;;;;;;;5.80;1.20;;;16.50;64.70;;;;;;5100612;28;20382;-81
2020/12/08 08:58:15;;;;;;;5.93;1.00;;;16.50;64.70;;;;;;5068890;28;20393;-80
2020/12/08 09:00:43;;;;;;;3.95;1.08;;;16.50;65.20;;;;;;5068308;28;20420;-81
2020/12/08 09:03:10;;;;;;;6.38;1.52;;;16.40;65.60;;;;;;5085756;28;20388;-81
2020/12/08 09:05:38;;;;;;;6.43;1.27;;;16.40;65.20;;;;;;5092830;28;20488;-82
2020/12/08 09:08:05;;;;;;;5.40;1.30;;;16.30;65.90;;;;;;5091304;28;20372;-81
2020/12/08 09:10:32;;;;;;;7.63;1.42;;;16.40;65.60;;;;;;5073034;28;20461;-82
2020/12/08 09:13:00;;;;;;;5.65;0.95;;;16.30;65.60;;;;;;5079123;28;20416;-83
2020/12/08 09:15:27;;;;;;;6.07;1.40;;;16.20;66.00;;;;;;5091756;28;20882;-82
2020/12/08 09:17:54;;;;;;;6.07;1.43;;;16.20;66.20;;;;;;5092340;28;20387;-82
2020/12/08 09:20:21;;;;;;;9.40;1.80;;;16.10;66.50;;;;;;5074214;28;20376;-82
2020/12/08 09:22:48;;;;;;;6.05;1.30;;;16.10;66.70;;;;;;5076099;28;20456;-84
2020/12/08 09:25:19;;;;;;;6.30;1.58;;;16.10;66.90;;;;;;5049698;28;20385;-83
2020/12/08 09:28:01;;;;;;;6.53;1.58;;;16.10;67.20;;;;;;5068834;28;20428;-86
2020/12/08 09:30:34;;;;;;;4.43;1.33;;;16.00;67.70;;;;;;5068694;28;20786;-87
2020/12/08 09:33:05;;;;;;;5.88;1.40;;;16.00;67.50;;;;;;5087442;28;20407;-84
2020/12/08 09:35:41;;;;;;;5.80;1.42;;;16.00;67.30;;;;;;5086801;28;20368;-85
2020/12/08 09:38:09;;;;;;;7.47;1.50;;;16.00;67.40;;;;;;5086324;28;20376;-85
2020/12/08 09:40:42;;;;;;;7.60;1.45;;;16.00;67.60;;;;;;5068479;28;20382;-86
2020/12/08 09:43:09;;;;;;;6.65;1.33;;;16.00;67.70;;;;;;5068958;28;20377;-85
2020/12/08 09:45:38;;;;;;;6.10;1.40;;;15.90;67.80;;;;;;5067674;28;20381;-86
2020/12/08 09:48:08;;;;;;;7.35;1.40;;;15.90;68.20;;;;;;5067113;28;20378;-86
2020/12/08 09:50:36;;;;;;;6.88;1.60;;;15.90;68.30;;;;;;5084440;28;20419;-85
2020/12/08 09:53:13;;;;;;;6.38;1.77;;;15.90;68.50;;;;;;5078687;28;20643;-86
2020/12/08 09:55:43;;;;;;;5.90;1.00;;;15.80;68.10;;;;;;5081862;28;20895;-83
2020/12/08 09:58:10;;;;;;;6.82;1.35;;;15.80;68.40;;;;;;5069131;28;20382;-84
2020/12/08 10:00:38;;;;;;;5.57;1.42;;;15.80;68.10;;;;;;5068054;28;20465;-84
2020/12/08 10:03:05;;;;;;;6.85;1.52;;;15.80;68.10;;;;;;5068347;28;20918;-84
2020/12/08 10:05:32;;;;;;;7.72;1.67;;;15.80;68.40;;;;;;5068848;28;20382;-84
2020/12/08 10:07:59;;;;;;;5.65;1.75;;;15.90;68.50;;;;;;5068982;28;20386;-84
2020/12/08 10:10:26;;;;;;;4.55;1.25;;;15.80;68.90;;;;;;5069878;28;20464;-84
2020/12/08 10:12:54;;;;;;;6.22;1.58;;;15.70;69.30;;;;;;5087485;28;20430;-84
2020/12/08 10:15:21;;;;;;;4.57;1.37;;;15.70;70.10;;;;;;5087849;28;20388;-84
2020/12/08 10:17:48;;;;;;;5.85;1.60;;;15.60;70.40;;;;;;5088159;28;20380;-85
2020/12/08 10:20:15;;;;;;;9.32;1.90;;;15.60;70.50;;;;;;5088100;28;20818;-85
2020/12/08 10:22:42;;;;;;;5.55;1.65;;;15.60;70.30;;;;;;5087757;28;20879;-85
2020/12/08 10:25:10;;;;;;;7.30;1.70;;;15.60;70.60;;;;;;5087874;28;21004;-83
2020/12/08 10:27:37;;;;;;;8.45;1.55;;;15.60;70.70;;;;;;5086452;28;20401;-83
2020/12/08 10:30:23;;;;;;;8.85;1.67;;;15.60;71.40;;;;;;5074854;28;21422;-86
2020/12/08 10:32:51;;;;;;;6.93;1.70;;;15.50;71.20;;;;;;5092697;28;20901;-83
2020/12/08 10:35:18;;;;;;;5.93;1.58;;;15.40;71.80;;;;;;5092676;28;20874;-83
2020/12/08 10:37:46;;;;;;;8.98;1.75;;;15.40;72.10;;;;;;5092695;28;20855;-83
2020/12/08 10:40:13;;;;;;;6.30;1.42;;;15.30;71.80;;;;;;5092696;28;20874;-84
2020/12/08 10:42:40;;;;;;;7.72;1.70;;;15.30;72.30;;;;;;5092091;28;20847;-84
2020/12/08 10:45:09;;;;;;;8.68;1.90;;;15.30;72.20;;;;;;5092326;28;20835;-84
2020/12/08 10:47:37;;;;;;;5.53;1.40;;;15.40;72.20;;;;;;5092256;28;20870;-83
2020/12/08 10:50:05;;;;;;;7.97;1.60;;;15.30;72.50;;;;;;5092389;28;20384;-82
2020/12/08 10:52:32;;;;;;;9.90;1.60;;;15.30;72.50;;;;;;5092913;28;20457;-83
2020/12/08 10:54:59;;;;;;;6.40;1.45;;;15.30;73.10;;;;;;5092251;28;20855;-84
2020/12/08 10:57:27;;;;;;;7.45;1.70;;;15.20;73.30;;;;;;5092176;28;20882;-83
2020/12/08 10:59:54;;;;;;;7.53;1.35;;;15.20;73.00;;;;;;5092526;28;20909;-82
2020/12/08 11:02:22;;;;;;;5.67;1.43;;;15.30;72.80;;;;;;5091930;28;20905;-83
2020/12/08 11:04:49;;;;;;;8.55;1.73;;;15.30;73.20;;;;;;5073835;28;20867;-83
2020/12/08 11:07:17;;;;;;;7.03;1.53;;;15.20;73.10;;;;;;5092187;28;20855;-83
2020/12/08 11:09:45;;;;;;;6.75;1.30;;;15.10;74.00;;;;;;5091995;28;20897;-83
2020/12/08 11:12:14;;;;;;;4.65;1.50;;;15.00;74.20;;;;;;5092070;28;20886;-82
2020/12/08 11:14:43;;;;;;;6.20;1.45;;;15.00;74.40;;;;;;5091749;28;20930;-82
2020/12/08 11:17:10;;;;;;;5.50;1.38;;;15.00;74.60;;;;;;5091735;28;20839;-84
2020/12/08 11:19:38;;;;;;;7.75;1.48;;;15.00;74.30;;;;;;5091635;28;20874;-81
2020/12/08 11:22:08;;;;;;;6.18;1.67;;;15.10;74.00;;;;;;5091810;28;20384;-82
2020/12/08 11:24:36;;;;;;;6.72;1.67;;;15.20;74.40;;;;;;5091258;28;20874;-82
2020/12/08 11:27:03;;;;;;;9.97;1.50;;;15.20;74.30;;;;;;5091425;28;20858;-82
2020/12/08 11:29:31;;;;;;;5.32;1.20;;;15.20;73.90;;;;;;5091945;28;20851;-82
2020/12/08 11:31:58;;;;;;;9.37;1.60;;;15.20;73.80;;;;;;5091509;28;20889;-82
2020/12/08 11:34:26;;;;;;;6.68;1.88;;;15.10;74.10;;;;;;5091713;28;20938;-82
2020/12/08 11:36:56;;;;;;;5.07;1.40;;;15.00;74.50;;;;;;5091503;28;20907;-83
2020/12/08 11:39:23;;;;;;;4.47;1.50;;;15.00;74.00;;;;;;5091598;28;20455;-82
2020/12/08 11:41:51;;;;;;;7.57;1.63;;;15.10;73.90;;;;;;5091458;28;20847;-83
2020/12/08 11:44:18;;;;;;;4.72;1.50;;;15.10;73.70;;;;;;5091392;28;20922;-83
2020/12/08 11:46:49;;;;;;;5.50;1.27;;;15.00;74.90;;;;;;5091387;28;20855;-84
2020/12/08 11:49:18;;;;;;;7.93;1.80;;;15.00;75.20;;;;;;5091357;28;20866;-84
2020/12/08 11:51:47;;;;;;;5.82;1.77;;;15.00;75.10;;;;;;5091423;28;20882;-84
2020/12/08 11:54:15;;;;;;;6.43;1.80;;;14.90;75.30;;;;;;5091028;28;20941;-84
2020/12/08 11:56:42;;;;;;;6.03;1.57;;;14.90;74.60;;;;;;5091054;28;20875;-84
2020/12/08 11:59:10;;;;;;;5.90;1.55;;;14.90;74.60;;;;;;5091272;28;21036;-84
2020/12/08 12:01:37;;;;;;;8.27;2.00;;;14.90;75.10;;;;;;5073174;28;20866;-84
2020/12/08 12:04:05;;;;;;;7.22;1.90;;;14.80;75.70;;;;;;5091132;28;20843;-84
2020/12/08 12:06:32;;;;;;;6.40;1.60;;;14.80;76.20;;;;;;5090988;28;20834;-84
2020/12/08 12:09:00;;;;;;;8.75;1.90;;;14.70;76.20;;;;;;5090972;28;20836;-84
2020/12/08 12:11:27;;;;;;;7.30;1.80;;;14.70;76.20;;;;;;5091006;28;20858;-84
2020/12/08 12:13:55;;;;;;;8.82;1.83;;;14.70;76.50;;;;;;5090994;28;20956;-84
2020/12/08 12:16:22;;;;;;;5.80;1.40;;;14.60;76.60;;;;;;5090980;28;20839;-83
2020/12/08 12:18:50;;;;;;;8.27;1.40;;;14.50;76.70;;;;;;5091010;28;20870;-84
2020/12/08 12:21:17;;;;;;;9.80;1.75;;;14.60;77.70;;;;;;5090530;28;20368;-83
2020/12/08 12:23:44;;;;;;;8.50;1.90;;;14.40;78.00;;;;;;5090906;28;20874;-85
2020/12/08 12:26:12;;;;;;;5.97;1.90;;;14.50;78.20;;;;;;5091008;28;22141;-84
2020/12/08 12:28:39;;;;;;;7.32;2.00;;;14.50;78.20;;;;;;5091119;28;20862;-84
2020/12/08 12:31:10;;;;;;;8.90;2.00;;;14.50;78.10;;;;;;5072527;28;20769;-83
2020/12/08 12:33:38;;;;;;;7.38;1.80;;;14.50;78.40;;;;;;5090187;28;20883;-84
2020/12/08 12:36:05;;;;;;;6.03;1.88;;;14.50;78.30;;;;;;5090806;28;20394;-84
2020/12/08 12:38:33;;;;;;;6.18;1.90;;;14.50;78.50;;;;;;5094644;28;20851;-84
2020/12/08 12:41:00;;;;;;;10.63;2.30;;;14.50;78.80;;;;;;5094237;28;20851;-84
2020/12/08 12:43:29;;;;;;;5.45;1.92;;;14.50;78.80;;;;;;5094599;28;20873;-83
2020/12/08 12:45:58;;;;;;;6.50;2.38;;;14.50;78.60;;;;;;5094536;28;20855;-84
2020/12/08 12:48:25;;;;;;;9.43;2.03;;;14.50;79.00;;;;;;5094541;28;20909;-84
2020/12/08 12:50:53;;;;;;;6.78;2.03;;;14.40;79.40;;;;;;5076374;28;20897;-84
2020/12/08 12:53:20;;;;;;;5.82;2.20;;;14.40;79.50;;;;;;5094270;28;20820;-84